sensor_id;sensor_type;location;lat;lon;timestamp;temperature;humidity
26541;DHT22;14206;50.202;10.948;2024-02-04T00:02:16;9.20;96.60
26541;DHT22;14206;50.202;10.948;2024-02-04T00:04:44;9.20;96.60
26541;DHT22;14206;50.202;10.948;2024-02-04T00:07:39;9.20;96.60
26541;DHT22;14206;50.202;10.948;2024-02-04T00:10:27;9.20;96.60
26541;DHT22;14206;50.202;10.948;2024-02-04T00:12:54;9.10;96.60
26541;DHT22;14206;50.202;10.948;2024-02-04T00:15:22;9.10;96.60
26541;DHT22;14206;50.202;10.948;2024-02-04T00:17:50;9.10;96.60
26541;DHT22;14206;50.202;10.948;2024-02-04T00:20:17;9.20;96.60
26541;DHT22;14206;50.202;10.948;2024-02-04T00:22:44;9.20;96.60
26541;DHT22;14206;50.202;10.948;2024-02-04T00:25:11;9.10;96.60
26541;DHT22;14206;50.202;10.948;2024-02-04T00:27:39;9.10;96.60
26541;DHT22;14206;50.202;10.948;2024-02-04T00:30:07;9.10;96.60
26541;DHT22;14206;50.202;10.948;2024-02-04T00:32:34;9.10;96.60
26541;DHT22;14206;50.202;10.948;2024-02-04T00:35:01;9.20;96.60
26541;DHT22;14206;50.202;10.948;2024-02-04T00:37:29;9.20;96.60
26541;DHT22;14206;50.202;10.948;2024-02-04T00:39:56;9.20;96.60
26541;DHT22;14206;50.202;10.948;2024-02-04T00:42:23;9.20;96.60
26541;DHT22;14206;50.202;10.948;2024-02-04T00:44:49;9.20;96.60
26541;DHT22;14206;50.202;10.948;2024-02-04T00:47:16;9.20;96.60
26541;DHT22;14206;50.202;10.948;2024-02-04T00:49:43;9.20;96.60
26541;DHT22;14206;50.202;10.948;2024-02-04T00:52:11;9.20;96.60
26541;DHT22;14206;50.202;10.948;2024-02-04T00:54:38;9.20;96.60
26541;DHT22;14206;50.202;10.948;2024-02-04T00:57:05;9.20;96.60
26541;DHT22;14206;50.202;10.948;2024-02-04T00:59:32;9.20;96.60
26541;DHT22;14206;50.202;10.948;2024-02-04T01:01:59;9.30;96.60
26541;DHT22;14206;50.202;10.948;2024-02-04T01:04:26;9.30;96.60
26541;DHT22;14206;50.202;10.948;2024-02-04T01:06:53;9.30;96.60
26541;DHT22;14206;50.202;10.948;2024-02-04T01:09:28;9.30;96.60
26541;DHT22;14206;50.202;10.948;2024-02-04T01:11:56;9.30;96.60
26541;DHT22;14206;50.202;10.948;2024-02-04T01:14:23;9.30;96.60
26541;DHT22;14206;50.202;10.948;2024-02-04T01:16:50;9.30;96.60
26541;DHT22;14206;50.202;10.948;2024-02-04T01:19:17;9.30;96.60
26541;DHT22;14206;50.202;10.948;2024-02-04T01:21:45;9.30;96.60
26541;DHT22;14206;50.202;10.948;2024-02-04T01:24:12;9.30;96.60
26541;DHT22;14206;50.202;10.948;2024-02-04T01:26:39;9.30;96.60
26541;DHT22;14206;50.202;10.948;2024-02-04T01:29:05;9.30;96.60
26541;DHT22;14206;50.202;10.948;2024-02-04T01:31:32;9.30;96.60
26541;DHT22;14206;50.202;10.948;2024-02-04T01:33:59;9.30;96.60
26541;DHT22;14206;50.202;10.948;2024-02-04T01:36:26;9.30;96.60
26541;DHT22;14206;50.202;10.948;2024-02-04T01:38:53;9.30;96.60
26541;DHT22;14206;50.202;10.948;2024-02-04T01:41:20;9.30;96.60
26541;DHT22;14206;50.202;10.948;2024-02-04T01:43:47;9.30;96.60
26541;DHT22;14206;50.202;10.948;2024-02-04T01:46:14;9.30;96.60
26541;DHT22;14206;50.202;10.948;2024-02-04T01:48:41;9.30;96.60
26541;DHT22;14206;50.202;10.948;2024-02-04T01:51:08;9.30;96.60
26541;DHT22;14206;50.202;10.948;2024-02-04T01:53:36;9.30;96.60
26541;DHT22;14206;50.202;10.948;2024-02-04T01:56:05;9.30;96.60
26541;DHT22;14206;50.202;10.948;2024-02-04T01:58:33;9.30;96.60
26541;DHT22;14206;50.202;10.948;2024-02-04T02:01:00;9.30;96.60
26541;DHT22;14206;50.202;10.948;2024-02-04T02:03:28;9.30;96.60
26541;DHT22;14206;50.202;10.948;2024-02-04T02:05:59;9.20;96.60
26541;DHT22;14206;50.202;10.948;2024-02-04T02:08:26;9.20;96.60
26541;DHT22;14206;50.202;10.948;2024-02-04T02:11:05;9.20;96.60
26541;DHT22;14206;50.202;10.948;2024-02-04T02:13:33;9.20;96.60
26541;DHT22;14206;50.202;10.948;2024-02-04T02:16:21;9.30;96.60
26541;DHT22;14206;50.202;10.948;2024-02-04T02:18:56;9.30;96.60
26541;DHT22;14206;50.202;10.948;2024-02-04T02:21:30;9.30;96.60
26541;DHT22;14206;50.202;10.948;2024-02-04T02:24:12;9.30;96.60
26541;DHT22;14206;50.202;10.948;2024-02-04T02:26:41;9.30;96.60
26541;DHT22;14206;50.202;10.948;2024-02-04T02:29:08;9.30;96.60
26541;DHT22;14206;50.202;10.948;2024-02-04T02:31:37;9.30;96.60
26541;DHT22;14206;50.202;10.948;2024-02-04T02:34:15;9.30;96.60
26541;DHT22;14206;50.202;10.948;2024-02-04T02:36:53;9.30;96.60
26541;DHT22;14206;50.202;10.948;2024-02-04T02:39:53;9.30;96.60
26541;DHT22;14206;50.202;10.948;2024-02-04T02:42:22;9.30;96.60
26541;DHT22;14206;50.202;10.948;2024-02-04T02:44:50;9.30;96.60
26541;DHT22;14206;50.202;10.948;2024-02-04T02:47:18;9.30;96.60
26541;DHT22;14206;50.202;10.948;2024-02-04T02:49:45;9.30;96.60
26541;DHT22;14206;50.202;10.948;2024-02-04T02:52:12;9.30;96.60
26541;DHT22;14206;50.202;10.948;2024-02-04T02:54:39;9.20;96.60
26541;DHT22;14206;50.202;10.948;2024-02-04T02:57:06;9.20;96.60
26541;DHT22;14206;50.202;10.948;2024-02-04T02:59:33;9.20;96.60
26541;DHT22;14206;50.202;10.948;2024-02-04T03:02:01;9.20;96.60
26541;DHT22;14206;50.202;10.948;2024-02-04T03:04:28;9.20;96.60
26541;DHT22;14206;50.202;10.948;2024-02-04T03:06:55;9.20;96.60
26541;DHT22;14206;50.202;10.948;2024-02-04T03:09:22;9.20;96.60
26541;DHT22;14206;50.202;10.948;2024-02-04T03:11:49;9.20;96.60
26541;DHT22;14206;50.202;10.948;2024-02-04T03:14:16;9.20;96.60
26541;DHT22;14206;50.202;10.948;2024-02-04T03:16:44;9.20;96.60
26541;DHT22;14206;50.202;10.948;2024-02-04T03:19:12;9.30;96.60
26541;DHT22;14206;50.202;10.948;2024-02-04T03:21:39;9.30;96.60
26541;DHT22;14206;50.202;10.948;2024-02-04T03:24:06;9.30;96.60
26541;DHT22;14206;50.202;10.948;2024-02-04T03:26:33;9.30;96.60
26541;DHT22;14206;50.202;10.948;2024-02-04T03:29:00;9.30;96.60
26541;DHT22;14206;50.202;10.948;2024-02-04T03:31:27;9.40;96.60
26541;DHT22;14206;50.202;10.948;2024-02-04T03:33:54;9.40;96.60
26541;DHT22;14206;50.202;10.948;2024-02-04T03:36:23;9.40;96.60
26541;DHT22;14206;50.202;10.948;2024-02-04T03:38:51;9.30;96.60
26541;DHT22;14206;50.202;10.948;2024-02-04T03:41:18;9.40;96.60
26541;DHT22;14206;50.202;10.948;2024-02-04T03:43:45;9.40;96.60
26541;DHT22;14206;50.202;10.948;2024-02-04T03:46:16;9.40;96.60
26541;DHT22;14206;50.202;10.948;2024-02-04T03:48:44;9.40;96.60
26541;DHT22;14206;50.202;10.948;2024-02-04T03:51:16;9.40;96.60
26541;DHT22;14206;50.202;10.948;2024-02-04T03:53:48;9.40;96.60
26541;DHT22;14206;50.202;10.948;2024-02-04T03:56:16;9.40;96.60
26541;DHT22;14206;50.202;10.948;2024-02-04T03:58:43;9.40;96.60
26541;DHT22;14206;50.202;10.948;2024-02-04T04:01:10;9.40;96.60
26541;DHT22;14206;50.202;10.948;2024-02-04T04:03:44;9.40;96.60
26541;DHT22;14206;50.202;10.948;2024-02-04T04:06:11;9.40;96.60
26541;DHT22;14206;50.202;10.948;2024-02-04T04:08:38;9.40;96.60
26541;DHT22;14206;50.202;10.948;2024-02-04T04:11:08;9.50;96.60
26541;DHT22;14206;50.202;10.948;2024-02-04T04:13:35;9.40;96.60
26541;DHT22;14206;50.202;10.948;2024-02-04T04:16:03;9.50;96.60
26541;DHT22;14206;50.202;10.948;2024-02-04T04:18:31;9.50;96.60
26541;DHT22;14206;50.202;10.948;2024-02-04T04:20:58;9.50;96.60
26541;DHT22;14206;50.202;10.948;2024-02-04T04:23:25;9.50;96.60
26541;DHT22;14206;50.202;10.948;2024-02-04T04:25:51;9.40;96.60
26541;DHT22;14206;50.202;10.948;2024-02-04T04:28:18;9.40;96.60
26541;DHT22;14206;50.202;10.948;2024-02-04T04:30:45;9.30;96.60
26541;DHT22;14206;50.202;10.948;2024-02-04T04:33:13;9.30;96.60
26541;DHT22;14206;50.202;10.948;2024-02-04T04:35:40;9.30;96.60
26541;DHT22;14206;50.202;10.948;2024-02-04T04:38:07;9.30;96.60
26541;DHT22;14206;50.202;10.948;2024-02-04T04:40:34;9.20;96.60
26541;DHT22;14206;50.202;10.948;2024-02-04T04:43:01;9.20;96.60
26541;DHT22;14206;50.202;10.948;2024-02-04T04:45:28;9.20;96.60
26541;DHT22;14206;50.202;10.948;2024-02-04T04:47:55;9.20;96.60
26541;DHT22;14206;50.202;10.948;2024-02-04T04:50:22;9.20;96.60
26541;DHT22;14206;50.202;10.948;2024-02-04T04:52:49;9.10;96.60
26541;DHT22;14206;50.202;10.948;2024-02-04T04:55:16;9.10;96.60
26541;DHT22;14206;50.202;10.948;2024-02-04T04:57:43;9.10;96.60
26541;DHT22;14206;50.202;10.948;2024-02-04T05:00:11;9.10;96.60
26541;DHT22;14206;50.202;10.948;2024-02-04T05:02:42;9.20;96.60
26541;DHT22;14206;50.202;10.948;2024-02-04T05:05:11;9.20;96.60
26541;DHT22;14206;50.202;10.948;2024-02-04T05:07:38;9.10;96.60
26541;DHT22;14206;50.202;10.948;2024-02-04T05:10:06;9.10;96.60
26541;DHT22;14206;50.202;10.948;2024-02-04T05:12:34;9.10;96.60
26541;DHT22;14206;50.202;10.948;2024-02-04T05:15:01;9.00;96.60
26541;DHT22;14206;50.202;10.948;2024-02-04T05:17:29;8.90;96.60
26541;DHT22;14206;50.202;10.948;2024-02-04T05:19:56;8.80;96.60
26541;DHT22;14206;50.202;10.948;2024-02-04T05:22:23;8.80;96.60
26541;DHT22;14206;50.202;10.948;2024-02-04T05:24:49;8.80;96.60
26541;DHT22;14206;50.202;10.948;2024-02-04T05:27:16;8.80;96.60
26541;DHT22;14206;50.202;10.948;2024-02-04T05:29:43;8.80;96.60
26541;DHT22;14206;50.202;10.948;2024-02-04T05:32:10;8.80;96.60
26541;DHT22;14206;50.202;10.948;2024-02-04T05:34:37;8.80;96.60
26541;DHT22;14206;50.202;10.948;2024-02-04T05:37:04;8.80;96.60
26541;DHT22;14206;50.202;10.948;2024-02-04T05:39:32;8.80;96.60
26541;DHT22;14206;50.202;10.948;2024-02-04T05:41:58;8.80;96.60
26541;DHT22;14206;50.202;10.948;2024-02-04T05:44:25;8.80;96.60
26541;DHT22;14206;50.202;10.948;2024-02-04T05:46:52;8.80;96.60
26541;DHT22;14206;50.202;10.948;2024-02-04T05:49:19;8.80;96.60
26541;DHT22;14206;50.202;10.948;2024-02-04T05:51:46;8.80;96.60
26541;DHT22;14206;50.202;10.948;2024-02-04T05:54:14;8.80;96.60
26541;DHT22;14206;50.202;10.948;2024-02-04T05:56:40;8.70;96.60
26541;DHT22;14206;50.202;10.948;2024-02-04T05:59:07;8.70;96.60
26541;DHT22;14206;50.202;10.948;2024-02-04T06:01:34;8.60;96.60
26541;DHT22;14206;50.202;10.948;2024-02-04T06:04:01;8.60;96.60
26541;DHT22;14206;50.202;10.948;2024-02-04T06:06:28;8.60;96.60
26541;DHT22;14206;50.202;10.948;2024-02-04T06:08:55;8.60;96.60
26541;DHT22;14206;50.202;10.948;2024-02-04T06:11:22;8.60;96.60
26541;DHT22;14206;50.202;10.948;2024-02-04T06:13:49;8.60;96.60
26541;DHT22;14206;50.202;10.948;2024-02-04T06:16:16;8.60;96.60
26541;DHT22;14206;50.202;10.948;2024-02-04T06:18:43;8.60;96.60
26541;DHT22;14206;50.202;10.948;2024-02-04T06:21:10;8.60;96.60
26541;DHT22;14206;50.202;10.948;2024-02-04T06:23:38;8.60;96.60
26541;DHT22;14206;50.202;10.948;2024-02-04T06:26:05;8.60;96.60
26541;DHT22;14206;50.202;10.948;2024-02-04T06:28:32;8.50;96.60
26541;DHT22;14206;50.202;10.948;2024-02-04T06:31:00;8.50;96.60
26541;DHT22;14206;50.202;10.948;2024-02-04T06:33:27;8.50;96.60
26541;DHT22;14206;50.202;10.948;2024-02-04T06:35:54;8.50;96.60
26541;DHT22;14206;50.202;10.948;2024-02-04T06:38:21;8.40;96.60
26541;DHT22;14206;50.202;10.948;2024-02-04T06:40:47;8.40;96.60
26541;DHT22;14206;50.202;10.948;2024-02-04T06:43:14;8.40;96.60
26541;DHT22;14206;50.202;10.948;2024-02-04T06:45:41;8.40;96.60
26541;DHT22;14206;50.202;10.948;2024-02-04T06:48:08;8.40;96.60
26541;DHT22;14206;50.202;10.948;2024-02-04T06:50:36;8.30;96.60
26541;DHT22;14206;50.202;10.948;2024-02-04T06:53:04;8.30;96.60
26541;DHT22;14206;50.202;10.948;2024-02-04T06:55:31;8.30;96.60
26541;DHT22;14206;50.202;10.948;2024-02-04T06:57:57;8.30;96.60
26541;DHT22;14206;50.202;10.948;2024-02-04T07:00:25;8.30;96.60
26541;DHT22;14206;50.202;10.948;2024-02-04T07:02:51;8.30;96.60
26541;DHT22;14206;50.202;10.948;2024-02-04T07:05:19;8.30;96.60
26541;DHT22;14206;50.202;10.948;2024-02-04T07:07:54;8.30;96.60
26541;DHT22;14206;50.202;10.948;2024-02-04T07:10:20;8.30;96.60
26541;DHT22;14206;50.202;10.948;2024-02-04T07:12:47;8.30;96.60
26541;DHT22;14206;50.202;10.948;2024-02-04T07:15:14;8.20;96.60
26541;DHT22;14206;50.202;10.948;2024-02-04T07:17:41;8.20;96.60
26541;DHT22;14206;50.202;10.948;2024-02-04T07:20:09;8.20;96.60
26541;DHT22;14206;50.202;10.948;2024-02-04T07:22:36;8.20;96.60
26541;DHT22;14206;50.202;10.948;2024-02-04T07:25:04;8.20;96.60
26541;DHT22;14206;50.202;10.948;2024-02-04T07:27:32;8.20;96.60
26541;DHT22;14206;50.202;10.948;2024-02-04T07:29:59;8.20;96.60
26541;DHT22;14206;50.202;10.948;2024-02-04T07:32:26;8.20;96.60
26541;DHT22;14206;50.202;10.948;2024-02-04T07:34:53;8.20;96.60
26541;DHT22;14206;50.202;10.948;2024-02-04T07:37:20;8.20;96.60
26541;DHT22;14206;50.202;10.948;2024-02-04T07:39:47;8.20;96.60
26541;DHT22;14206;50.202;10.948;2024-02-04T07:42:14;8.20;96.60
26541;DHT22;14206;50.202;10.948;2024-02-04T07:44:41;8.20;96.60
26541;DHT22;14206;50.202;10.948;2024-02-04T07:47:08;8.20;96.60
26541;DHT22;14206;50.202;10.948;2024-02-04T07:49:35;8.20;96.60
26541;DHT22;14206;50.202;10.948;2024-02-04T07:52:02;8.20;96.60
26541;DHT22;14206;50.202;10.948;2024-02-04T07:54:30;8.20;96.60
26541;DHT22;14206;50.202;10.948;2024-02-04T07:56:57;8.20;96.60
26541;DHT22;14206;50.202;10.948;2024-02-04T07:59:24;8.20;96.60
26541;DHT22;14206;50.202;10.948;2024-02-04T08:01:51;8.20;96.60
26541;DHT22;14206;50.202;10.948;2024-02-04T08:04:17;8.30;96.60
26541;DHT22;14206;50.202;10.948;2024-02-04T08:06:44;8.30;96.60
26541;DHT22;14206;50.202;10.948;2024-02-04T08:09:11;8.30;96.60
26541;DHT22;14206;50.202;10.948;2024-02-04T08:11:38;8.30;96.60
26541;DHT22;14206;50.202;10.948;2024-02-04T08:14:05;8.30;96.60
26541;DHT22;14206;50.202;10.948;2024-02-04T08:16:32;8.30;96.60
26541;DHT22;14206;50.202;10.948;2024-02-04T08:18:59;8.30;96.60
26541;DHT22;14206;50.202;10.948;2024-02-04T08:21:26;8.30;96.60
26541;DHT22;14206;50.202;10.948;2024-02-04T08:23:53;8.30;96.60
26541;DHT22;14206;50.202;10.948;2024-02-04T08:26:20;8.30;96.60
26541;DHT22;14206;50.202;10.948;2024-02-04T08:28:47;8.40;96.60
26541;DHT22;14206;50.202;10.948;2024-02-04T08:31:14;8.50;96.60
26541;DHT22;14206;50.202;10.948;2024-02-04T08:33:41;8.60;96.60
26541;DHT22;14206;50.202;10.948;2024-02-04T08:36:08;8.60;96.60
26541;DHT22;14206;50.202;10.948;2024-02-04T08:38:37;8.60;96.60
26541;DHT22;14206;50.202;10.948;2024-02-04T08:41:04;8.60;96.60
26541;DHT22;14206;50.202;10.948;2024-02-04T08:43:31;8.60;96.60
26541;DHT22;14206;50.202;10.948;2024-02-04T08:45:58;8.60;96.60
26541;DHT22;14206;50.202;10.948;2024-02-04T08:48:34;8.70;96.60
26541;DHT22;14206;50.202;10.948;2024-02-04T08:51:00;8.70;96.60
26541;DHT22;14206;50.202;10.948;2024-02-04T08:53:27;8.70;96.60
26541;DHT22;14206;50.202;10.948;2024-02-04T08:55:54;8.70;96.60
26541;DHT22;14206;50.202;10.948;2024-02-04T08:58:22;8.70;96.60
26541;DHT22;14206;50.202;10.948;2024-02-04T09:00:49;8.60;96.60
26541;DHT22;14206;50.202;10.948;2024-02-04T09:03:16;8.70;96.60
26541;DHT22;14206;50.202;10.948;2024-02-04T09:05:43;8.60;96.60
26541;DHT22;14206;50.202;10.948;2024-02-04T09:08:10;8.60;96.60
26541;DHT22;14206;50.202;10.948;2024-02-04T09:10:37;8.60;96.60
26541;DHT22;14206;50.202;10.948;2024-02-04T09:13:04;8.60;96.60
26541;DHT22;14206;50.202;10.948;2024-02-04T09:15:32;8.60;96.60
26541;DHT22;14206;50.202;10.948;2024-02-04T09:18:00;8.60;96.60
26541;DHT22;14206;50.202;10.948;2024-02-04T09:20:27;8.50;96.60
26541;DHT22;14206;50.202;10.948;2024-02-04T09:22:54;8.50;96.60
26541;DHT22;14206;50.202;10.948;2024-02-04T09:25:21;8.50;96.60
26541;DHT22;14206;50.202;10.948;2024-02-04T09:27:48;8.50;96.60
26541;DHT22;14206;50.202;10.948;2024-02-04T09:30:14;8.50;96.60
26541;DHT22;14206;50.202;10.948;2024-02-04T09:32:42;8.60;96.60
26541;DHT22;14206;50.202;10.948;2024-02-04T09:35:09;8.70;96.60
26541;DHT22;14206;50.202;10.948;2024-02-04T09:37:36;8.80;96.60
26541;DHT22;14206;50.202;10.948;2024-02-04T09:40:04;8.90;96.60
26541;DHT22;14206;50.202;10.948;2024-02-04T09:42:31;8.90;96.60
26541;DHT22;14206;50.202;10.948;2024-02-04T09:44:59;8.90;96.60
26541;DHT22;14206;50.202;10.948;2024-02-04T09:47:26;8.90;96.60
26541;DHT22;14206;50.202;10.948;2024-02-04T09:49:54;8.90;96.60
26541;DHT22;14206;50.202;10.948;2024-02-04T09:52:29;8.80;96.60
26541;DHT22;14206;50.202;10.948;2024-02-04T09:55:00;8.80;96.60
26541;DHT22;14206;50.202;10.948;2024-02-04T09:57:29;8.80;96.60
26541;DHT22;14206;50.202;10.948;2024-02-04T09:59:57;8.80;96.60
26541;DHT22;14206;50.202;10.948;2024-02-04T10:02:24;8.80;96.60
26541;DHT22;14206;50.202;10.948;2024-02-04T10:04:52;8.70;96.60
26541;DHT22;14206;50.202;10.948;2024-02-04T10:07:18;8.70;96.60
26541;DHT22;14206;50.202;10.948;2024-02-04T10:09:46;8.70;96.60
26541;DHT22;14206;50.202;10.948;2024-02-04T10:12:13;8.70;96.60
26541;DHT22;14206;50.202;10.948;2024-02-04T10:14:40;8.70;96.60
26541;DHT22;14206;50.202;10.948;2024-02-04T10:17:07;8.70;96.60
26541;DHT22;14206;50.202;10.948;2024-02-04T10:19:35;8.60;96.60
26541;DHT22;14206;50.202;10.948;2024-02-04T10:22:03;8.60;96.60
26541;DHT22;14206;50.202;10.948;2024-02-04T10:24:30;8.60;96.60
26541;DHT22;14206;50.202;10.948;2024-02-04T10:26:58;8.60;96.60
26541;DHT22;14206;50.202;10.948;2024-02-04T10:29:25;8.60;96.60
26541;DHT22;14206;50.202;10.948;2024-02-04T10:31:55;8.60;96.60
26541;DHT22;14206;50.202;10.948;2024-02-04T10:34:26;8.60;96.60
26541;DHT22;14206;50.202;10.948;2024-02-04T10:36:53;8.60;96.60
26541;DHT22;14206;50.202;10.948;2024-02-04T10:39:20;8.60;96.60
26541;DHT22;14206;50.202;10.948;2024-02-04T10:41:52;8.60;96.60
26541;DHT22;14206;50.202;10.948;2024-02-04T10:44:22;8.60;96.60
26541;DHT22;14206;50.202;10.948;2024-02-04T10:46:50;8.60;96.60
26541;DHT22;14206;50.202;10.948;2024-02-04T10:49:19;8.60;96.60
26541;DHT22;14206;50.202;10.948;2024-02-04T10:51:46;8.60;96.60
26541;DHT22;14206;50.202;10.948;2024-02-04T10:54:19;8.60;96.60
26541;DHT22;14206;50.202;10.948;2024-02-04T10:56:55;8.60;96.60
26541;DHT22;14206;50.202;10.948;2024-02-04T10:59:22;8.50;96.60
26541;DHT22;14206;50.202;10.948;2024-02-04T11:01:50;8.50;96.60
26541;DHT22;14206;50.202;10.948;2024-02-04T11:04:18;8.50;96.60
26541;DHT22;14206;50.202;10.948;2024-02-04T11:06:46;8.60;96.60
26541;DHT22;14206;50.202;10.948;2024-02-04T11:09:13;8.60;96.60
26541;DHT22;14206;50.202;10.948;2024-02-04T11:11:42;8.60;96.60
26541;DHT22;14206;50.202;10.948;2024-02-04T11:14:12;8.60;96.60
26541;DHT22;14206;50.202;10.948;2024-02-04T11:19:36;8.60;96.60
26541;DHT22;14206;50.202;10.948;2024-02-04T11:27:35;8.60;96.60
26541;DHT22;14206;50.202;10.948;2024-02-04T11:30:03;8.70;96.60
26541;DHT22;14206;50.202;10.948;2024-02-04T11:32:31;8.70;96.60
26541;DHT22;14206;50.202;10.948;2024-02-04T11:34:58;8.70;96.60
26541;DHT22;14206;50.202;10.948;2024-02-04T11:37:29;8.80;96.60
26541;DHT22;14206;50.202;10.948;2024-02-04T11:39:57;8.80;96.60
26541;DHT22;14206;50.202;10.948;2024-02-04T11:42:25;8.80;96.60
26541;DHT22;14206;50.202;10.948;2024-02-04T11:45:10;8.80;96.60
26541;DHT22;14206;50.202;10.948;2024-02-04T11:47:38;8.80;96.60
26541;DHT22;14206;50.202;10.948;2024-02-04T11:50:07;8.80;96.60
26541;DHT22;14206;50.202;10.948;2024-02-04T11:52:37;8.80;96.60
26541;DHT22;14206;50.202;10.948;2024-02-04T11:55:05;8.90;96.60
26541;DHT22;14206;50.202;10.948;2024-02-04T11:57:34;9.00;96.60
26541;DHT22;14206;50.202;10.948;2024-02-04T12:00:01;9.00;96.60
26541;DHT22;14206;50.202;10.948;2024-02-04T12:02:32;9.10;96.60
26541;DHT22;14206;50.202;10.948;2024-02-04T12:05:00;9.20;96.60
26541;DHT22;14206;50.202;10.948;2024-02-04T12:07:28;9.20;96.60
26541;DHT22;14206;50.202;10.948;2024-02-04T12:09:56;9.30;96.60
26541;DHT22;14206;50.202;10.948;2024-02-04T12:12:24;9.30;96.60
26541;DHT22;14206;50.202;10.948;2024-02-04T12:14:52;9.30;96.60
26541;DHT22;14206;50.202;10.948;2024-02-04T12:17:20;9.40;96.60
26541;DHT22;14206;50.202;10.948;2024-02-04T12:19:47;9.40;96.60
26541;DHT22;14206;50.202;10.948;2024-02-04T12:22:15;9.40;96.60
26541;DHT22;14206;50.202;10.948;2024-02-04T12:24:42;9.50;96.60
26541;DHT22;14206;50.202;10.948;2024-02-04T12:27:09;9.50;96.60
26541;DHT22;14206;50.202;10.948;2024-02-04T12:29:36;9.50;96.60
26541;DHT22;14206;50.202;10.948;2024-02-04T12:32:04;9.50;96.60
26541;DHT22;14206;50.202;10.948;2024-02-04T12:34:33;9.50;96.60
26541;DHT22;14206;50.202;10.948;2024-02-04T12:37:01;9.60;96.60
26541;DHT22;14206;50.202;10.948;2024-02-04T12:39:29;9.60;96.60
26541;DHT22;14206;50.202;10.948;2024-02-04T12:41:59;9.60;96.60
26541;DHT22;14206;50.202;10.948;2024-02-04T12:44:26;9.60;96.60
26541;DHT22;14206;50.202;10.948;2024-02-04T12:46:53;9.60;96.60
26541;DHT22;14206;50.202;10.948;2024-02-04T12:49:21;9.60;96.60
26541;DHT22;14206;50.202;10.948;2024-02-04T12:51:49;9.50;96.60
26541;DHT22;14206;50.202;10.948;2024-02-04T12:54:16;9.50;96.60
26541;DHT22;14206;50.202;10.948;2024-02-04T12:56:47;9.40;96.60
26541;DHT22;14206;50.202;10.948;2024-02-04T12:59:31;9.40;96.60
26541;DHT22;14206;50.202;10.948;2024-02-04T13:02:02;9.50;96.60
26541;DHT22;14206;50.202;10.948;2024-02-04T13:04:39;9.50;96.60
26541;DHT22;14206;50.202;10.948;2024-02-04T13:07:09;9.60;96.60
26541;DHT22;14206;50.202;10.948;2024-02-04T13:09:38;9.70;96.60
26541;DHT22;14206;50.202;10.948;2024-02-04T13:12:09;9.70;96.60
26541;DHT22;14206;50.202;10.948;2024-02-04T13:14:39;9.70;96.60
26541;DHT22;14206;50.202;10.948;2024-02-04T13:17:06;9.60;96.60
26541;DHT22;14206;50.202;10.948;2024-02-04T13:19:37;9.60;96.60
26541;DHT22;14206;50.202;10.948;2024-02-04T13:22:05;9.60;96.60
26541;DHT22;14206;50.202;10.948;2024-02-04T13:24:33;9.60;96.60
26541;DHT22;14206;50.202;10.948;2024-02-04T13:27:01;9.70;96.60
26541;DHT22;14206;50.202;10.948;2024-02-04T13:29:28;9.70;96.60
26541;DHT22;14206;50.202;10.948;2024-02-04T13:31:55;9.80;96.60
26541;DHT22;14206;50.202;10.948;2024-02-04T13:34:22;9.80;96.60
26541;DHT22;14206;50.202;10.948;2024-02-04T13:36:49;9.80;96.60
26541;DHT22;14206;50.202;10.948;2024-02-04T13:39:17;9.80;96.60
26541;DHT22;14206;50.202;10.948;2024-02-04T13:41:44;9.80;96.60
26541;DHT22;14206;50.202;10.948;2024-02-04T13:44:11;9.80;96.60
26541;DHT22;14206;50.202;10.948;2024-02-04T13:46:38;9.90;96.60
26541;DHT22;14206;50.202;10.948;2024-02-04T13:49:09;9.90;96.60
26541;DHT22;14206;50.202;10.948;2024-02-04T13:51:36;10.00;96.60
26541;DHT22;14206;50.202;10.948;2024-02-04T13:54:11;10.10;96.60
26541;DHT22;14206;50.202;10.948;2024-02-04T13:56:44;10.10;96.60
26541;DHT22;14206;50.202;10.948;2024-02-04T13:59:11;10.10;96.60
26541;DHT22;14206;50.202;10.948;2024-02-04T14:01:38;10.10;96.60
26541;DHT22;14206;50.202;10.948;2024-02-04T14:04:05;10.10;96.60
26541;DHT22;14206;50.202;10.948;2024-02-04T14:06:35;10.00;96.60
26541;DHT22;14206;50.202;10.948;2024-02-04T14:09:02;10.00;96.60
26541;DHT22;14206;50.202;10.948;2024-02-04T14:11:29;9.90;96.60
26541;DHT22;14206;50.202;10.948;2024-02-04T14:13:56;9.80;96.60
26541;DHT22;14206;50.202;10.948;2024-02-04T14:16:23;9.70;96.60
26541;DHT22;14206;50.202;10.948;2024-02-04T14:18:50;9.60;96.60
26541;DHT22;14206;50.202;10.948;2024-02-04T14:21:17;9.60;96.60
26541;DHT22;14206;50.202;10.948;2024-02-04T14:23:44;9.50;96.60
26541;DHT22;14206;50.202;10.948;2024-02-04T14:26:17;9.50;96.60
26541;DHT22;14206;50.202;10.948;2024-02-04T14:28:44;9.50;96.60
26541;DHT22;14206;50.202;10.948;2024-02-04T14:31:11;9.50;96.60
26541;DHT22;14206;50.202;10.948;2024-02-04T14:33:39;9.50;96.60
26541;DHT22;14206;50.202;10.948;2024-02-04T14:36:07;9.50;96.60
26541;DHT22;14206;50.202;10.948;2024-02-04T14:38:34;9.50;96.60
26541;DHT22;14206;50.202;10.948;2024-02-04T14:41:03;9.50;96.60
26541;DHT22;14206;50.202;10.948;2024-02-04T14:43:29;9.50;96.60
26541;DHT22;14206;50.202;10.948;2024-02-04T14:45:56;9.50;96.60
26541;DHT22;14206;50.202;10.948;2024-02-04T14:48:25;9.50;96.60
26541;DHT22;14206;50.202;10.948;2024-02-04T14:50:52;9.60;96.60
26541;DHT22;14206;50.202;10.948;2024-02-04T14:53:20;9.60;96.60
26541;DHT22;14206;50.202;10.948;2024-02-04T14:55:47;9.60;96.60
26541;DHT22;14206;50.202;10.948;2024-02-04T14:58:13;9.60;96.60
26541;DHT22;14206;50.202;10.948;2024-02-04T15:00:40;9.50;96.60
26541;DHT22;14206;50.202;10.948;2024-02-04T15:03:09;9.50;96.60
26541;DHT22;14206;50.202;10.948;2024-02-04T15:05:36;9.50;96.60
26541;DHT22;14206;50.202;10.948;2024-02-04T15:08:03;9.60;96.60
26541;DHT22;14206;50.202;10.948;2024-02-04T15:10:31;9.50;96.60
26541;DHT22;14206;50.202;10.948;2024-02-04T15:12:58;9.50;96.60
26541;DHT22;14206;50.202;10.948;2024-02-04T15:15:26;9.50;96.60
26541;DHT22;14206;50.202;10.948;2024-02-04T15:17:53;9.50;96.60
26541;DHT22;14206;50.202;10.948;2024-02-04T15:20:20;9.50;96.60
26541;DHT22;14206;50.202;10.948;2024-02-04T15:22:50;9.50;96.60
26541;DHT22;14206;50.202;10.948;2024-02-04T15:25:17;9.50;96.60
26541;DHT22;14206;50.202;10.948;2024-02-04T15:27:45;9.60;96.60
26541;DHT22;14206;50.202;10.948;2024-02-04T15:30:12;9.60;96.60
26541;DHT22;14206;50.202;10.948;2024-02-04T15:32:40;9.60;96.60
26541;DHT22;14206;50.202;10.948;2024-02-04T15:35:08;9.60;96.60
26541;DHT22;14206;50.202;10.948;2024-02-04T15:37:35;9.60;96.60
26541;DHT22;14206;50.202;10.948;2024-02-04T15:40:02;9.60;96.60
26541;DHT22;14206;50.202;10.948;2024-02-04T15:42:30;9.60;96.60
26541;DHT22;14206;50.202;10.948;2024-02-04T15:44:57;9.60;96.60